createdAt,value
2023-06-09T00:01:04.101Z,64.00
2023-06-09T00:03:33.255Z,64.30
2023-06-09T00:06:00.396Z,64.40
2023-06-09T00:08:27.777Z,64.50
2023-06-09T00:10:54.675Z,64.30
2023-06-09T00:13:21.782Z,64.60
2023-06-09T00:15:48.569Z,64.50
2023-06-09T00:18:17.371Z,65.00
2023-06-09T00:20:44.492Z,64.70
2023-06-09T00:23:11.314Z,64.70
2023-06-09T00:25:38.191Z,65.10
2023-06-09T00:28:05.235Z,65.30
2023-06-09T00:30:39.639Z,65.00
2023-06-09T00:33:07.476Z,64.90
2023-06-09T00:35:34.696Z,65.00
2023-06-09T00:38:01.642Z,65.20
2023-06-09T00:40:28.698Z,65.70
2023-06-09T00:42:56.205Z,65.70
2023-06-09T00:45:23.124Z,66.00
2023-06-09T00:47:50.490Z,66.20
2023-06-09T00:50:21.424Z,66.20
2023-06-09T00:52:49.463Z,66.30
2023-06-09T00:55:19.219Z,66.50
2023-06-09T00:57:48.758Z,66.30
2023-06-09T01:00:17.610Z,66.30
2023-06-09T01:02:44.905Z,66.60
2023-06-09T01:05:14.022Z,66.80
2023-06-09T01:07:42.232Z,67.00
2023-06-09T01:10:19.403Z,67.40
2023-06-09T01:13:07.209Z,67.10
2023-06-09T01:15:40.111Z,66.70
2023-06-09T01:18:13.819Z,67.20
2023-06-09T01:21:07.840Z,67.00
2023-06-09T01:23:55.972Z,67.10
2023-06-09T01:26:23.977Z,66.70
2023-06-09T01:28:52.251Z,67.40
2023-06-09T01:31:20.268Z,67.30
2023-06-09T01:33:47.852Z,66.90
2023-06-09T01:36:16.693Z,67.20
2023-06-09T01:38:44.094Z,67.30
2023-06-09T01:41:11.009Z,67.30
2023-06-09T01:43:37.855Z,67.20
2023-06-09T01:46:05.190Z,67.20
2023-06-09T01:49:00.426Z,67.10
2023-06-09T01:51:59.220Z,66.80
2023-06-09T01:54:30.879Z,66.60
2023-06-09T01:57:07.956Z,67.30
2023-06-09T01:59:56.744Z,67.10
2023-06-09T02:02:27.045Z,66.60
2023-06-09T02:04:56.270Z,67.10
2023-06-09T02:07:23.878Z,67.10
2023-06-09T02:09:51.091Z,67.40
2023-06-09T02:12:17.986Z,67.20
2023-06-09T02:14:44.896Z,67.00
2023-06-09T02:17:11.824Z,67.60
2023-06-09T02:19:39.973Z,67.60
2023-06-09T02:22:07.776Z,67.30
2023-06-09T02:24:36.048Z,67.60
2023-06-09T02:27:04.346Z,67.70
2023-06-09T02:29:31.436Z,68.80
2023-06-09T02:32:00.822Z,69.00
2023-06-09T02:34:28.514Z,68.80
2023-06-09T02:36:55.675Z,69.10
2023-06-09T02:39:23.199Z,69.00
2023-06-09T02:41:50.159Z,69.30
2023-06-09T02:44:17.228Z,69.30
2023-06-09T02:46:45.520Z,69.10
2023-06-09T02:49:13.067Z,68.90
2023-06-09T02:51:39.917Z,69.20
2023-06-09T02:54:06.734Z,68.90
2023-06-09T02:56:33.563Z,69.00
2023-06-09T02:59:00.340Z,69.30
2023-06-09T03:01:29.204Z,68.90
2023-06-09T03:03:56.285Z,69.20
2023-06-09T03:06:23.180Z,69.10
2023-06-09T03:08:50.060Z,69.10
2023-06-09T03:11:16.979Z,69.30
2023-06-09T03:13:43.885Z,69.10
2023-06-09T03:16:10.740Z,69.60
2023-06-09T03:18:37.640Z,69.40
2023-06-09T03:21:06.017Z,69.10
2023-06-09T03:23:33.984Z,69.90
2023-06-09T03:26:01.222Z,69.60
2023-06-09T03:28:28.189Z,69.70
2023-06-09T03:30:56.558Z,70.00
2023-06-09T03:33:25.500Z,69.90
2023-06-09T03:35:52.782Z,70.10
2023-06-09T03:38:19.539Z,70.10
2023-06-09T03:40:46.407Z,70.00
2023-06-09T03:43:13.311Z,70.10
2023-06-09T03:45:40.453Z,70.20
2023-06-09T03:48:08.374Z,69.80
2023-06-09T03:50:35.331Z,69.90
2023-06-09T03:53:02.202Z,69.80
2023-06-09T03:55:30.969Z,70.00
2023-06-09T03:57:57.911Z,70.10
2023-06-09T04:00:25.002Z,69.90
2023-06-09T04:02:51.931Z,70.00
2023-06-09T04:05:18.775Z,69.80
2023-06-09T04:07:45.780Z,69.60
2023-06-09T04:10:12.711Z,69.80
2023-06-09T04:12:42.541Z,69.50
2023-06-09T04:15:10.867Z,69.40
2023-06-09T04:17:39.007Z,69.60
2023-06-09T04:20:09.067Z,69.60
2023-06-09T04:22:36.780Z,69.50
2023-06-09T04:25:04.037Z,69.30
2023-06-09T04:27:31.791Z,69.70
2023-06-09T04:29:58.861Z,69.30
2023-06-09T04:32:26.250Z,69.00
2023-06-09T04:34:53.947Z,69.10
2023-06-09T04:37:21.568Z,69.00
2023-06-09T04:39:48.694Z,68.80
2023-06-09T04:42:20.561Z,68.80
2023-06-09T04:44:52.001Z,68.40
2023-06-09T04:47:19.595Z,68.30
2023-06-09T04:49:47.954Z,68.00
2023-06-09T04:52:18.726Z,68.30
2023-06-09T04:54:46.295Z,68.20
2023-06-09T04:57:13.289Z,67.90
2023-06-09T04:59:42.257Z,67.50
2023-06-09T05:02:12.300Z,67.20
2023-06-09T05:04:39.319Z,68.00
2023-06-09T05:07:07.840Z,68.20
2023-06-09T05:09:35.654Z,68.10
2023-06-09T05:12:02.521Z,68.40
2023-06-09T05:14:32.028Z,68.20
2023-06-09T05:17:01.248Z,67.70
2023-06-09T05:19:28.999Z,68.20
2023-06-09T05:21:58.110Z,67.80
2023-06-09T05:24:25.254Z,68.20
2023-06-09T05:26:52.056Z,68.30
2023-06-09T05:29:19.129Z,66.80
2023-06-09T05:31:46.053Z,66.70
2023-06-09T05:34:13.414Z,66.80
2023-06-09T05:36:40.456Z,66.70
2023-06-09T05:39:08.455Z,66.90
2023-06-09T05:41:35.730Z,65.80
2023-06-09T05:44:02.544Z,66.10
2023-06-09T05:46:29.507Z,66.40
2023-06-09T05:48:56.538Z,66.10
2023-06-09T05:51:23.481Z,65.50
2023-06-09T05:53:50.439Z,65.40
2023-06-09T05:56:18.137Z,65.00
2023-06-09T05:58:45.391Z,64.90
2023-06-09T06:01:15.166Z,64.90
2023-06-09T06:03:43.063Z,64.70
2023-06-09T06:06:11.755Z,64.30
2023-06-09T06:08:39.871Z,64.70
2023-06-09T06:11:06.785Z,64.70
2023-06-09T06:13:33.673Z,64.40
2023-06-09T06:16:01.515Z,64.40
2023-06-09T06:18:28.638Z,64.20
2023-06-09T06:20:55.560Z,64.00
2023-06-09T06:23:22.696Z,63.20
2023-06-09T06:25:49.526Z,62.30
2023-06-09T06:28:16.478Z,61.70
2023-06-09T06:30:43.568Z,61.20
2023-06-09T06:33:10.434Z,59.40
2023-06-09T06:35:37.358Z,58.70
2023-06-09T06:38:04.435Z,58.00
2023-06-09T06:40:32.508Z,57.60
2023-06-09T06:42:59.450Z,57.00
2023-06-09T06:45:29.372Z,56.60
2023-06-09T06:47:56.936Z,56.10
2023-06-09T06:50:26.105Z,55.90
2023-06-09T06:52:53.783Z,55.60
2023-06-09T06:55:20.703Z,55.70
2023-06-09T06:57:47.516Z,55.90
2023-06-09T07:00:17.516Z,56.20
2023-06-09T07:02:48.719Z,56.60
2023-06-09T07:05:17.116Z,55.90
2023-06-09T07:07:48.563Z,56.50
2023-06-09T07:10:15.588Z,56.50
2023-06-09T07:12:42.962Z,57.00
2023-06-09T07:15:10.342Z,56.50
2023-06-09T07:17:37.224Z,56.30
2023-06-09T07:20:05.261Z,56.10
2023-06-09T07:22:35.044Z,55.60
2023-06-09T07:25:02.300Z,56.20
2023-06-09T07:27:29.158Z,55.60
2023-06-09T07:29:56.299Z,55.10
2023-06-09T07:32:23.425Z,55.10
2023-06-09T07:34:51.881Z,54.90
2023-06-09T07:37:18.974Z,54.90
2023-06-09T07:39:46.021Z,55.00
2023-06-09T07:42:12.896Z,55.00
2023-06-09T07:44:41.169Z,54.50
2023-06-09T07:47:08.373Z,54.60
2023-06-09T07:49:36.089Z,53.90
2023-06-09T07:52:16.332Z,53.80
2023-06-09T07:54:47.586Z,53.70
2023-06-09T07:57:14.735Z,52.00
2023-06-09T07:59:41.503Z,51.20
2023-06-09T08:02:08.433Z,51.10
2023-06-09T08:04:35.507Z,50.30
2023-06-09T08:07:02.804Z,49.30
2023-06-09T08:09:29.726Z,49.10
2023-06-09T08:11:56.600Z,48.70
2023-06-09T08:14:23.546Z,48.90
2023-06-09T08:16:50.816Z,48.20
2023-06-09T08:19:17.779Z,46.80
2023-06-09T08:21:45.265Z,46.20
2023-06-09T08:24:12.723Z,46.60
2023-06-09T08:26:40.429Z,46.10
2023-06-09T08:29:07.979Z,45.80
2023-06-09T08:31:38.188Z,44.80
2023-06-09T08:34:05.071Z,44.50
2023-06-09T08:36:32.973Z,44.30
2023-06-09T08:38:59.982Z,44.30
2023-06-09T08:41:33.608Z,43.60
2023-06-09T08:44:00.906Z,43.60
2023-06-09T08:46:34.235Z,43.30
2023-06-09T08:49:01.792Z,43.40
2023-06-09T08:51:29.926Z,42.90
2023-06-09T08:53:57.963Z,43.60
2023-06-09T08:56:24.880Z,44.70
2023-06-09T08:58:53.463Z,44.50
2023-06-09T09:01:20.716Z,45.00
2023-06-09T09:03:48.975Z,45.10
2023-06-09T09:06:16.842Z,45.50
2023-06-09T09:08:45.213Z,46.00
2023-06-09T09:11:12.655Z,45.50
2023-06-09T09:13:41.670Z,45.90
2023-06-09T09:16:15.284Z,45.60
2023-06-09T09:18:47.079Z,45.80
2023-06-09T09:21:24.290Z,46.10
2023-06-09T09:24:13.012Z,46.00
2023-06-09T09:26:43.081Z,46.20
2023-06-09T09:29:10.632Z,45.40
2023-06-09T09:31:40.756Z,45.70
2023-06-09T09:34:14.984Z,44.80
2023-06-09T09:36:46.587Z,45.60
2023-06-09T09:39:14.238Z,45.10
2023-06-09T09:42:01.052Z,45.00
2023-06-09T09:44:42.302Z,44.90
2023-06-09T09:47:14.435Z,44.60
2023-06-09T09:50:02.266Z,44.80
2023-06-09T09:52:32.026Z,45.30
2023-06-09T09:55:08.814Z,43.80
2023-06-09T09:57:36.563Z,44.50
2023-06-09T10:00:09.886Z,43.80
2023-06-09T10:02:38.773Z,43.70
2023-06-09T10:05:08.454Z,45.10
2023-06-09T10:07:39.359Z,45.10
2023-06-09T10:10:09.869Z,45.20
2023-06-09T10:12:39.089Z,45.30
2023-06-09T10:15:09.877Z,45.30
2023-06-09T10:17:38.235Z,45.10
2023-06-09T10:20:06.855Z,45.00
2023-06-09T10:22:34.315Z,45.60
2023-06-09T10:25:01.906Z,44.80
2023-06-09T10:27:29.682Z,44.50
2023-06-09T10:29:56.873Z,43.90
2023-06-09T10:32:28.520Z,43.50
2023-06-09T10:34:58.958Z,43.60
2023-06-09T10:37:34.102Z,43.50
2023-06-09T10:40:19.039Z,43.30
2023-06-09T10:42:58.304Z,43.60
2023-06-09T10:45:49.447Z,42.70
2023-06-09T10:48:52.037Z,42.10
2023-06-09T10:51:28.088Z,42.20
2023-06-09T10:54:19.059Z,42.60
2023-06-09T10:57:01.682Z,41.80
2023-06-09T10:59:29.798Z,41.90
2023-06-09T11:02:05.920Z,41.70
2023-06-09T11:04:39.219Z,42.20
2023-06-09T11:07:14.930Z,42.70
2023-06-09T11:09:47.690Z,42.40
2023-06-09T11:12:30.606Z,42.40
2023-06-09T11:15:03.568Z,42.00
2023-06-09T11:17:39.063Z,41.80
2023-06-09T11:20:13.184Z,40.80
2023-06-09T11:22:43.802Z,40.30
2023-06-09T11:25:19.525Z,40.40
2023-06-09T11:28:10.473Z,39.80
2023-06-09T11:31:01.628Z,39.10
2023-06-09T11:33:47.268Z,39.70
2023-06-09T11:36:28.304Z,39.70
2023-06-09T11:39:05.382Z,40.30
2023-06-09T11:41:33.543Z,40.20
2023-06-09T11:44:01.117Z,39.20
2023-06-09T11:46:28.227Z,39.20
2023-06-09T11:49:02.718Z,39.10
2023-06-09T11:51:29.718Z,39.40
2023-06-09T11:53:56.577Z,39.50
2023-06-09T11:56:23.778Z,38.70
2023-06-09T11:58:54.169Z,38.30
2023-06-09T12:01:24.742Z,38.40
2023-06-09T12:03:51.802Z,38.60
2023-06-09T12:06:18.982Z,38.40
2023-06-09T12:08:46.530Z,38.20
2023-06-09T12:11:18.179Z,37.90
2023-06-09T12:13:49.571Z,38.50
2023-06-09T12:16:16.473Z,39.00
2023-06-09T12:18:43.496Z,38.60
2023-06-09T12:21:11.120Z,39.00
2023-06-09T12:23:39.214Z,38.80
2023-06-09T12:26:08.152Z,38.70
2023-06-09T12:28:35.764Z,38.70
2023-06-09T12:31:12.837Z,38.90
2023-06-09T12:33:46.509Z,38.90
2023-06-09T12:36:13.404Z,38.10
2023-06-09T12:38:46.748Z,38.70
2023-06-09T12:41:15.342Z,37.90
2023-06-09T12:43:49.347Z,37.70
2023-06-09T12:46:28.625Z,37.10
2023-06-09T12:49:02.709Z,37.70
2023-06-09T12:51:30.685Z,36.60
2023-06-09T12:53:58.177Z,36.70
2023-06-09T12:56:28.856Z,37.00
2023-06-09T12:58:56.068Z,36.70
2023-06-09T13:01:24.093Z,36.90
2023-06-09T13:03:51.845Z,36.90
2023-06-09T13:06:19.091Z,37.20
2023-06-09T13:08:46.337Z,36.90
2023-06-09T13:11:13.564Z,36.70
2023-06-09T13:13:41.533Z,37.30
2023-06-09T13:16:09.246Z,36.70
2023-06-09T13:18:39.468Z,36.30
2023-06-09T13:21:07.319Z,36.80
2023-06-09T13:23:34.295Z,36.10
2023-06-09T13:26:01.243Z,36.80
2023-06-09T13:28:28.305Z,37.20
2023-06-09T13:30:55.407Z,37.70
2023-06-09T13:33:22.717Z,37.60
2023-06-09T13:35:49.979Z,37.80
2023-06-09T13:38:16.791Z,37.70
2023-06-09T13:40:48.178Z,37.80
2023-06-09T13:43:16.310Z,38.20
2023-06-09T13:45:43.974Z,37.60
2023-06-09T13:48:12.337Z,38.00
2023-06-09T13:50:40.337Z,38.00
2023-06-09T13:53:07.472Z,38.40
2023-06-09T13:55:34.439Z,37.80
2023-06-09T13:58:01.419Z,37.70
2023-06-09T14:00:28.369Z,38.00
2023-06-09T14:02:55.988Z,37.70
2023-06-09T14:05:25.007Z,37.50
2023-06-09T14:07:52.132Z,38.40
2023-06-09T14:10:19.420Z,38.70
2023-06-09T14:12:49.457Z,38.40
2023-06-09T14:17:50.932Z,39.00
2023-06-09T14:20:21.224Z,38.70
2023-06-09T14:22:48.622Z,39.00
2023-06-09T14:25:19.704Z,38.70
2023-06-09T14:27:47.708Z,39.00
2023-06-09T14:30:15.626Z,39.60
2023-06-09T14:32:48.645Z,39.80
2023-06-09T14:35:23.332Z,40.00
2023-06-09T14:37:59.480Z,39.60
2023-06-09T14:40:30.363Z,40.30
2023-06-09T14:42:58.461Z,40.00
2023-06-09T14:45:26.210Z,40.40
2023-06-09T14:47:58.585Z,40.10
2023-06-09T14:50:37.283Z,40.60
2023-06-09T14:53:04.661Z,39.50
2023-06-09T14:55:33.830Z,39.70
2023-06-09T14:58:02.976Z,38.70
2023-06-09T15:00:31.329Z,38.80
2023-06-09T15:02:59.791Z,39.20
2023-06-09T15:05:31.470Z,38.70
2023-06-09T15:08:00.312Z,38.90
2023-06-09T15:10:28.835Z,39.30
2023-06-09T15:12:56.328Z,40.00
2023-06-09T15:15:27.160Z,40.00
2023-06-09T15:17:54.445Z,40.30
2023-06-09T15:20:22.522Z,40.30
2023-06-09T15:22:49.352Z,41.00
2023-06-09T15:25:16.255Z,41.20
2023-06-09T15:27:44.441Z,41.00
2023-06-09T15:30:13.042Z,42.20
2023-06-09T15:32:40.022Z,43.40
2023-06-09T15:35:07.513Z,45.10
2023-06-09T15:37:34.540Z,45.80
2023-06-09T15:40:04.283Z,46.10
2023-06-09T15:42:31.481Z,46.30
2023-06-09T15:44:59.580Z,46.50
2023-06-09T15:47:28.746Z,46.30
2023-06-09T15:49:56.164Z,46.30
2023-06-09T15:52:23.167Z,47.20
2023-06-09T15:54:50.052Z,48.20
2023-06-09T15:57:21.062Z,48.60
2023-06-09T15:59:47.897Z,49.30
2023-06-09T16:02:14.736Z,49.80
2023-06-09T16:04:41.613Z,49.90
2023-06-09T16:07:08.582Z,49.90
2023-06-09T16:09:35.433Z,50.30
2023-06-09T16:12:02.265Z,50.70
2023-06-09T16:14:29.504Z,50.70
2023-06-09T16:16:56.494Z,50.70
2023-06-09T16:19:23.375Z,50.80
2023-06-09T16:21:50.454Z,50.50
2023-06-09T16:24:17.495Z,50.90
2023-06-09T16:26:46.044Z,50.90
2023-06-09T16:29:13.038Z,51.20
2023-06-09T16:31:40.058Z,51.60
2023-06-09T16:34:06.995Z,51.30
2023-06-09T16:36:33.796Z,51.60
2023-06-09T16:39:00.997Z,50.90
2023-06-09T16:41:27.953Z,50.90
2023-06-09T16:43:56.193Z,50.80
2023-06-09T16:46:23.336Z,51.30
2023-06-09T16:48:50.623Z,51.40
2023-06-09T16:51:17.916Z,51.70
2023-06-09T16:53:45.159Z,51.60
2023-06-09T16:56:12.091Z,51.50
2023-06-09T16:58:38.940Z,51.60
2023-06-09T17:01:05.807Z,51.80
2023-06-09T17:03:32.854Z,51.70
2023-06-09T17:05:59.797Z,51.90
2023-06-09T17:08:27.847Z,52.10
2023-06-09T17:10:54.741Z,52.10
2023-06-09T17:13:22.681Z,52.40
2023-06-09T17:15:49.540Z,52.30
2023-06-09T17:18:16.480Z,52.10
2023-06-09T17:20:43.337Z,52.50
2023-06-09T17:23:10.260Z,52.30
2023-06-09T17:25:38.499Z,52.70
2023-06-09T17:28:05.329Z,52.80
2023-06-09T17:30:32.965Z,52.60
2023-06-09T17:32:59.962Z,52.60
2023-06-09T17:35:26.839Z,52.80
2023-06-09T17:37:53.669Z,53.10
2023-06-09T17:40:20.541Z,53.20
2023-06-09T17:42:47.324Z,53.20
2023-06-09T17:45:14.090Z,53.00
2023-06-09T17:47:41.315Z,53.20
2023-06-09T17:50:09.158Z,53.20
2023-06-09T17:52:36.620Z,53.70
2023-06-09T17:55:04.495Z,53.70
2023-06-09T17:57:39.820Z,53.50
2023-06-09T18:00:07.774Z,53.40
2023-06-09T18:02:34.688Z,53.80
2023-06-09T18:05:01.636Z,53.70
2023-06-09T18:07:28.652Z,53.90
2023-06-09T18:09:56.233Z,53.90
2023-06-09T18:12:23.093Z,53.50
2023-06-09T18:14:50.595Z,53.70
2023-06-09T18:17:17.420Z,53.90
2023-06-09T18:19:44.649Z,53.90
2023-06-09T18:22:11.454Z,54.20
2023-06-09T18:24:38.426Z,54.50
2023-06-09T18:27:06.430Z,54.00
2023-06-09T18:29:33.556Z,54.70
2023-06-09T18:32:01.807Z,55.20
2023-06-09T18:34:28.943Z,55.70
2023-06-09T18:36:55.815Z,55.60
2023-06-09T18:39:23.385Z,55.80
2023-06-09T18:41:50.704Z,55.80
2023-06-09T18:44:19.626Z,56.00
2023-06-09T18:46:47.139Z,55.70
2023-06-09T18:49:14.148Z,56.20
2023-06-09T18:51:41.752Z,56.20
2023-06-09T18:54:08.811Z,56.40
2023-06-09T18:56:36.315Z,56.60
2023-06-09T18:59:03.316Z,56.60
2023-06-09T19:01:30.337Z,57.00
2023-06-09T19:03:57.923Z,56.90
2023-06-09T19:06:25.693Z,57.30
2023-06-09T19:08:52.475Z,57.40
2023-06-09T19:11:19.571Z,57.90
2023-06-09T19:13:46.517Z,57.50
2023-06-09T19:16:13.545Z,57.70
2023-06-09T19:18:40.521Z,57.90
2023-06-09T19:21:07.530Z,57.50
2023-06-09T19:23:34.470Z,57.60
2023-06-09T19:26:02.370Z,58.20
2023-06-09T19:28:29.419Z,58.40
2023-06-09T19:30:56.469Z,58.40
2023-06-09T19:33:23.357Z,58.60
2023-06-09T19:35:50.324Z,58.20
2023-06-09T19:38:18.365Z,58.80
2023-06-09T19:40:45.883Z,58.90
2023-06-09T19:43:13.260Z,59.00
2023-06-09T19:45:40.212Z,59.10
2023-06-09T19:48:07.661Z,59.30
2023-06-09T19:50:38.060Z,58.80
2023-06-09T19:53:06.329Z,58.90
2023-06-09T19:55:33.570Z,59.20
2023-06-09T19:58:00.765Z,59.80
2023-06-09T20:00:27.803Z,60.00
2023-06-09T20:02:54.780Z,60.00
2023-06-09T20:05:21.948Z,60.40
2023-06-09T20:07:48.909Z,60.80
2023-06-09T20:10:15.894Z,61.10
2023-06-09T20:12:42.698Z,61.40
2023-06-09T20:15:10.526Z,61.50
2023-06-09T20:17:37.551Z,61.80
2023-06-09T20:20:05.512Z,62.30
2023-06-09T20:22:32.395Z,62.10
2023-06-09T20:24:59.206Z,62.10
2023-06-09T20:27:26.071Z,62.50
2023-06-09T20:29:53.951Z,62.60
2023-06-09T20:32:20.815Z,62.70
2023-06-09T20:34:47.967Z,62.80
2023-06-09T20:37:15.023Z,62.90
2023-06-09T20:39:42.407Z,63.30
2023-06-09T20:42:09.589Z,63.20
2023-06-09T20:44:37.252Z,63.60
2023-06-09T20:47:04.815Z,63.90
2023-06-09T20:49:31.753Z,63.90
2023-06-09T20:51:59.052Z,63.80
2023-06-09T20:54:25.942Z,64.00
2023-06-09T20:56:52.905Z,63.90
2023-06-09T20:59:19.751Z,63.80
2023-06-09T21:01:47.752Z,64.00
2023-06-09T21:04:16.976Z,64.40
2023-06-09T21:06:44.041Z,64.10
2023-06-09T21:09:11.811Z,64.00
2023-06-09T21:11:38.697Z,64.10
2023-06-09T21:14:05.838Z,64.00
2023-06-09T21:16:32.913Z,63.90
2023-06-09T21:19:00.023Z,64.50
2023-06-09T21:21:26.920Z,64.20
2023-06-09T21:23:53.848Z,64.70
2023-06-09T21:26:25.798Z,64.60
2023-06-09T21:28:53.558Z,64.40
2023-06-09T21:31:20.734Z,64.50
2023-06-09T21:33:47.720Z,64.50
2023-06-09T21:36:14.785Z,64.70
2023-06-09T21:38:42.017Z,64.70
2023-06-09T21:41:09.000Z,65.10
2023-06-09T21:43:35.942Z,65.00
2023-06-09T21:46:02.877Z,65.00
2023-06-09T21:48:30.012Z,65.20
2023-06-09T21:50:56.803Z,65.20
2023-06-09T21:53:23.606Z,65.40
2023-06-09T21:55:50.453Z,65.70
2023-06-09T21:58:17.281Z,65.60
2023-06-09T22:00:44.162Z,65.60
2023-06-09T22:03:12.990Z,65.40
2023-06-09T22:05:39.905Z,65.40
2023-06-09T22:08:06.779Z,65.70
2023-06-09T22:10:35.352Z,65.60
2023-06-09T22:13:02.252Z,65.40
2023-06-09T22:15:29.334Z,65.80
2023-06-09T22:17:56.704Z,65.60
2023-06-09T22:20:25.088Z,65.70
2023-06-09T22:22:51.997Z,65.80
2023-06-09T22:25:18.897Z,65.70
2023-06-09T22:27:47.039Z,65.70
2023-06-09T22:30:14.077Z,65.80
2023-06-09T22:32:41.111Z,65.80
2023-06-09T22:35:09.244Z,65.80
2023-06-09T22:37:36.380Z,65.80
2023-06-09T22:40:04.486Z,65.80
2023-06-09T22:42:31.443Z,65.80
2023-06-09T22:44:58.269Z,66.10
2023-06-09T22:47:25.189Z,66.00
2023-06-09T22:50:13.148Z,65.80
2023-06-09T22:52:46.256Z,65.90
2023-06-09T22:55:15.565Z,66.10
2023-06-09T22:57:43.804Z,66.30
2023-06-09T23:00:12.462Z,66.20
2023-06-09T23:02:42.899Z,66.30
2023-06-09T23:05:29.269Z,66.10
2023-06-09T23:07:56.343Z,66.50
2023-06-09T23:10:23.193Z,66.30
2023-06-09T23:12:50.099Z,66.30
2023-06-09T23:15:17.957Z,66.60
2023-06-09T23:17:44.932Z,66.70
2023-06-09T23:20:14.503Z,66.40
2023-06-09T23:22:41.561Z,66.50
2023-06-09T23:25:09.196Z,66.90
2023-06-09T23:27:37.523Z,66.70
2023-06-09T23:30:12.661Z,67.00
2023-06-09T23:32:40.861Z,67.10
2023-06-09T23:35:08.807Z,67.10
2023-06-09T23:37:38.042Z,66.90
2023-06-09T23:40:09.865Z,67.40
2023-06-09T23:42:37.757Z,67.30
2023-06-09T23:45:05.516Z,67.70
2023-06-09T23:47:32.473Z,67.50
2023-06-09T23:49:59.404Z,67.30
2023-06-09T23:52:26.319Z,67.90
2023-06-09T23:54:53.722Z,68.00
2023-06-09T23:57:20.738Z,67.70
2023-06-09T23:59:48.634Z,67.70
